sensor_id;sensor_type;location;lat;lon;timestamp;pressure;altitude;pressure_sealevel;temperature;humidity
69318;BME280;56457;52.190;4.440;2023-01-28T00:00:30;103133.47;;;4.09;100.00
69318;BME280;56457;52.190;4.440;2023-01-28T00:01:31;103133.38;;;4.08;100.00
69318;BME280;56457;52.190;4.440;2023-01-28T00:02:31;103129.34;;;4.13;100.00
69318;BME280;56457;52.190;4.440;2023-01-28T00:03:32;103135.44;;;4.13;100.00
69318;BME280;56457;52.190;4.440;2023-01-28T00:04:32;103133.66;;;4.12;100.00
69318;BME280;56457;52.190;4.440;2023-01-28T00:05:32;103128.59;;;4.15;100.00
69318;BME280;56457;52.190;4.440;2023-01-28T00:06:33;103130.97;;;4.11;100.00
69318;BME280;56457;52.190;4.440;2023-01-28T00:07:33;103134.34;;;4.10;100.00
69318;BME280;56457;52.190;4.440;2023-01-28T00:08:33;103128.13;;;4.06;100.00
69318;BME280;56457;52.190;4.440;2023-01-28T00:09:34;103128.66;;;4.00;100.00
69318;BME280;56457;52.190;4.440;2023-01-28T00:10:35;103128.75;;;4.02;100.00
69318;BME280;56457;52.190;4.440;2023-01-28T00:11:35;103131.19;;;3.99;100.00
69318;BME280;56457;52.190;4.440;2023-01-28T00:12:36;103131.31;;;3.86;100.00
69318;BME280;56457;52.190;4.440;2023-01-28T00:13:36;103121.09;;;3.89;100.00
69318;BME280;56457;52.190;4.440;2023-01-28T00:14:36;103118.81;;;3.95;100.00
69318;BME280;56457;52.190;4.440;2023-01-28T00:15:37;103116.97;;;3.92;100.00
69318;BME280;56457;52.190;4.440;2023-01-28T00:16:37;103111.94;;;3.95;100.00
69318;BME280;56457;52.190;4.440;2023-01-28T00:17:37;103118.00;;;3.96;100.00
69318;BME280;56457;52.190;4.440;2023-01-28T00:18:37;103116.97;;;3.92;100.00
69318;BME280;56457;52.190;4.440;2023-01-28T00:19:38;103121.50;;;3.96;100.00
69318;BME280;56457;52.190;4.440;2023-01-28T00:20:38;103110.16;;;3.94;100.00
69318;BME280;56457;52.190;4.440;2023-01-28T00:21:39;103111.50;;;3.88;100.00
69318;BME280;56457;52.190;4.440;2023-01-28T00:22:39;103119.94;;;3.84;100.00
69318;BME280;56457;52.190;4.440;2023-01-28T00:23:40;103120.59;;;3.80;100.00
69318;BME280;56457;52.190;4.440;2023-01-28T00:24:43;103119.84;;;3.82;100.00
69318;BME280;56457;52.190;4.440;2023-01-28T00:25:43;103119.31;;;3.88;100.00
69318;BME280;56457;52.190;4.440;2023-01-28T00:26:43;103116.38;;;3.82;100.00
69318;BME280;56457;52.190;4.440;2023-01-28T00:27:44;103115.72;;;3.86;100.00
69318;BME280;56457;52.190;4.440;2023-01-28T00:28:44;103108.91;;;3.88;100.00
69318;BME280;56457;52.190;4.440;2023-01-28T00:29:44;103113.75;;;3.82;100.00
69318;BME280;56457;52.190;4.440;2023-01-28T00:30:45;103114.50;;;3.79;100.00
69318;BME280;56457;52.190;4.440;2023-01-28T00:31:45;103112.88;;;3.81;100.00
69318;BME280;56457;52.190;4.440;2023-01-28T00:32:45;103115.38;;;3.80;100.00
69318;BME280;56457;52.190;4.440;2023-01-28T00:33:47;103111.72;;;3.76;100.00
69318;BME280;56457;52.190;4.440;2023-01-28T00:34:47;103121.47;;;3.80;100.00
69318;BME280;56457;52.190;4.440;2023-01-28T00:35:58;103114.50;;;3.79;100.00
69318;BME280;56457;52.190;4.440;2023-01-28T00:36:59;103112.94;;;3.83;100.00
69318;BME280;56457;52.190;4.440;2023-01-28T00:38:00;103114.09;;;3.88;100.00
69318;BME280;56457;52.190;4.440;2023-01-28T00:39:03;103119.31;;;3.88;100.00
69318;BME280;56457;52.190;4.440;2023-01-28T00:40:04;103121.09;;;3.89;100.00
69318;BME280;56457;52.190;4.440;2023-01-28T00:41:08;103121.97;;;3.89;100.00
69318;BME280;56457;52.190;4.440;2023-01-28T00:42:09;103119.78;;;3.97;100.00
69318;BME280;56457;52.190;4.440;2023-01-28T00:43:09;103124.66;;;3.91;100.00
69318;BME280;56457;52.190;4.440;2023-01-28T00:44:10;103126.56;;;3.78;100.00
69318;BME280;56457;52.190;4.440;2023-01-28T00:45:10;103114.31;;;3.76;100.00
69318;BME280;56457;52.190;4.440;2023-01-28T00:46:11;103126.66;;;3.80;100.00
69318;BME280;56457;52.190;4.440;2023-01-28T00:47:11;103132.56;;;3.77;100.00
69318;BME280;56457;52.190;4.440;2023-01-28T00:48:11;103132.50;;;3.76;100.00
69318;BME280;56457;52.190;4.440;2023-01-28T00:49:12;103135.09;;;3.76;100.00
69318;BME280;56457;52.190;4.440;2023-01-28T00:50:12;103123.81;;;3.75;100.00
69318;BME280;56457;52.190;4.440;2023-01-28T00:51:13;103129.53;;;3.70;100.00
69318;BME280;56457;52.190;4.440;2023-01-28T00:52:14;103136.38;;;3.68;100.00
69318;BME280;56457;52.190;4.440;2023-01-28T00:53:14;103131.06;;;3.66;100.00
69318;BME280;56457;52.190;4.440;2023-01-28T00:54:14;103134.75;;;3.70;100.00
69318;BME280;56457;52.190;4.440;2023-01-28T00:55:15;103137.53;;;3.73;100.00
69318;BME280;56457;52.190;4.440;2023-01-28T00:56:15;103128.66;;;3.69;100.00
69318;BME280;56457;52.190;4.440;2023-01-28T00:57:16;103133.31;;;3.75;100.00
69318;BME280;56457;52.190;4.440;2023-01-28T00:58:17;103135.97;;;3.76;100.00
69318;BME280;56457;52.190;4.440;2023-01-28T00:59:17;103132.75;;;3.81;100.00
69318;BME280;56457;52.190;4.440;2023-01-28T01:00:18;103129.28;;;3.80;100.00
69318;BME280;56457;52.190;4.440;2023-01-28T01:01:21;103130.28;;;3.67;100.00
69318;BME280;56457;52.190;4.440;2023-01-28T01:02:23;103135.81;;;3.59;100.00
69318;BME280;56457;52.190;4.440;2023-01-28T01:03:23;103134.75;;;3.70;100.00
69318;BME280;56457;52.190;4.440;2023-01-28T01:04:23;103120.66;;;3.81;100.00
69318;BME280;56457;52.190;4.440;2023-01-28T01:05:25;103123.81;;;3.75;100.00
69318;BME280;56457;52.190;4.440;2023-01-28T01:06:26;103122.66;;;3.70;100.00
69318;BME280;56457;52.190;4.440;2023-01-28T01:07:27;103118.53;;;3.74;100.00
69318;BME280;56457;52.190;4.440;2023-01-28T01:08:42;103123.00;;;3.76;100.00
69318;BME280;56457;52.190;4.440;2023-01-28T01:09:49;103132.13;;;3.70;100.00
69318;BME280;56457;52.190;4.440;2023-01-28T01:10:49;103128.66;;;3.69;100.00
69318;BME280;56457;52.190;4.440;2023-01-28T01:11:50;103128.31;;;3.63;100.00
69318;BME280;56457;52.190;4.440;2023-01-28T01:12:50;103128.56;;;3.68;100.00
69318;BME280;56457;52.190;4.440;2023-01-28T01:13:53;103138.75;;;3.65;100.00
69318;BME280;56457;52.190;4.440;2023-01-28T01:14:55;103142.25;;;3.65;100.00
69318;BME280;56457;52.190;4.440;2023-01-28T01:16:05;103137.97;;;3.66;100.00
69318;BME280;56457;52.190;4.440;2023-01-28T01:17:05;103133.66;;;3.66;100.00
69318;BME280;56457;52.190;4.440;2023-01-28T01:18:05;103138.06;;;3.67;100.00
69318;BME280;56457;52.190;4.440;2023-01-28T01:19:06;103136.44;;;3.69;100.00
69318;BME280;56457;52.190;4.440;2023-01-28T01:20:10;103133.56;;;3.65;100.00
69318;BME280;56457;52.190;4.440;2023-01-28T01:21:12;103130.81;;;3.62;100.00
69318;BME280;56457;52.190;4.440;2023-01-28T01:22:13;103127.03;;;3.71;100.00
69318;BME280;56457;52.190;4.440;2023-01-28T01:23:13;103128.81;;;3.72;100.00
69318;BME280;56457;52.190;4.440;2023-01-28T01:24:13;103127.75;;;3.69;100.00
69318;BME280;56457;52.190;4.440;2023-01-28T01:25:14;103122.75;;;3.57;100.00
69318;BME280;56457;52.190;4.440;2023-01-28T01:26:15;103122.41;;;3.51;100.00
69318;BME280;56457;52.190;4.440;2023-01-28T01:27:15;103115.78;;;3.41;100.00
69318;BME280;56457;52.190;4.440;2023-01-28T01:28:16;103129.03;;;3.46;100.00
69318;BME280;56457;52.190;4.440;2023-01-28T01:29:16;103121.53;;;3.50;100.00
69318;BME280;56457;52.190;4.440;2023-01-28T01:30:16;103116.41;;;3.52;100.00
69318;BME280;56457;52.190;4.440;2023-01-28T01:31:18;103119.44;;;3.60;100.00
69318;BME280;56457;52.190;4.440;2023-01-28T01:32:19;103126.72;;;3.50;100.00
69318;BME280;56457;52.190;4.440;2023-01-28T01:33:19;103124.53;;;3.58;100.00
69318;BME280;56457;52.190;4.440;2023-01-28T01:34:19;103122.38;;;3.66;100.00
69318;BME280;56457;52.190;4.440;2023-01-28T01:35:20;103119.09;;;3.68;100.00
69318;BME280;56457;52.190;4.440;2023-01-28T01:36:21;103115.06;;;3.73;100.00
69318;BME280;56457;52.190;4.440;2023-01-28T01:45:40;103109.38;;;3.81;100.00
69318;BME280;56457;52.190;4.440;2023-01-28T01:46:43;103119.94;;;3.84;100.00
69318;BME280;56457;52.190;4.440;2023-01-28T01:47:58;103111.97;;;3.81;100.00
69318;BME280;56457;52.190;4.440;2023-01-28T01:49:05;103103.53;;;3.85;100.00
69318;BME280;56457;52.190;4.440;2023-01-28T01:50:26;103108.28;;;3.92;100.00
69318;BME280;56457;52.190;4.440;2023-01-28T01:51:28;103114.38;;;3.92;100.00
69318;BME280;56457;52.190;4.440;2023-01-28T01:52:31;103109.00;;;3.89;100.00
69318;BME280;56457;52.190;4.440;2023-01-28T01:53:32;103112.59;;;3.91;100.00
69318;BME280;56457;52.190;4.440;2023-01-28T01:54:33;103114.84;;;3.85;100.00
69318;BME280;56457;52.190;4.440;2023-01-28T01:55:34;103113.03;;;3.84;100.00
69318;BME280;56457;52.190;4.440;2023-01-28T01:56:37;103108.91;;;3.88;100.00
69318;BME280;56457;52.190;4.440;2023-01-28T01:57:40;103106.19;;;3.70;100.00
69318;BME280;56457;52.190;4.440;2023-01-28T01:58:41;103112.69;;;3.78;100.00
69318;BME280;56457;52.190;4.440;2023-01-28T01:59:43;103109.66;;;3.85;100.00
69318;BME280;56457;52.190;4.440;2023-01-28T02:00:43;103111.84;;;3.94;100.00
69318;BME280;56457;52.190;4.440;2023-01-28T02:01:44;103113.09;;;4.00;100.00
69318;BME280;56457;52.190;4.440;2023-01-28T02:02:47;103112.75;;;3.94;100.00
69318;BME280;56457;52.190;4.440;2023-01-28T02:03:56;103119.31;;;3.88;100.00
69318;BME280;56457;52.190;4.440;2023-01-28T02:04:59;103126.34;;;3.90;100.00
69318;BME280;56457;52.190;4.440;2023-01-28T02:05:59;103124.41;;;3.86;100.00
69318;BME280;56457;52.190;4.440;2023-01-28T02:06:59;103121.91;;;3.88;100.00
69318;BME280;56457;52.190;4.440;2023-01-28T02:08:00;103125.03;;;3.82;100.00
69318;BME280;56457;52.190;4.440;2023-01-28T02:09:29;103124.41;;;3.86;100.00
69318;BME280;56457;52.190;4.440;2023-01-28T02:10:30;103123.41;;;3.84;100.00
69318;BME280;56457;52.190;4.440;2023-01-28T02:11:31;103119.13;;;3.85;100.00
69318;BME280;56457;52.190;4.440;2023-01-28T02:12:33;103118.22;;;3.84;100.00
69318;BME280;56457;52.190;4.440;2023-01-28T02:13:35;103113.75;;;3.82;100.00
69318;BME280;56457;52.190;4.440;2023-01-28T02:14:38;103118.41;;;3.87;100.00
69318;BME280;56457;52.190;4.440;2023-01-28T02:15:41;103125.56;;;3.91;100.00
69318;BME280;56457;52.190;4.440;2023-01-28T02:16:41;103127.34;;;3.92;100.00
69318;BME280;56457;52.190;4.440;2023-01-28T02:17:41;103125.38;;;3.88;100.00
69318;BME280;56457;52.190;4.440;2023-01-28T02:18:42;103125.31;;;3.87;100.00
69318;BME280;56457;52.190;4.440;2023-01-28T02:19:47;103133.09;;;3.87;100.00
69318;BME280;56457;52.190;4.440;2023-01-28T02:22:13;103131.75;;;3.93;100.00
69318;BME280;56457;52.190;4.440;2023-01-28T02:25:46;103122.31;;;3.95;100.00
69318;BME280;56457;52.190;4.440;2023-01-28T02:26:55;103126.28;;;3.89;100.00
69318;BME280;56457;52.190;4.440;2023-01-28T02:30:14;103116.41;;;3.98;100.00
69318;BME280;56457;52.190;4.440;2023-01-28T02:31:26;103113.56;;;3.93;100.00
69318;BME280;56457;52.190;4.440;2023-01-28T02:32:52;103110.69;;;3.89;100.00
69318;BME280;56457;52.190;4.440;2023-01-28T02:34:58;103107.13;;;3.87;100.00
69318;BME280;56457;52.190;4.440;2023-01-28T02:36:15;103107.06;;;3.85;100.00
69318;BME280;56457;52.190;4.440;2023-01-28T02:37:24;103116.72;;;3.88;100.00
69318;BME280;56457;52.190;4.440;2023-01-28T02:38:34;103116.63;;;3.86;100.00
69318;BME280;56457;52.190;4.440;2023-01-28T02:39:39;103109.25;;;3.94;100.00
69318;BME280;56457;52.190;4.440;2023-01-28T02:40:50;103113.97;;;4.01;100.00
69318;BME280;56457;52.190;4.440;2023-01-28T02:42:15;103118.00;;;3.96;100.00
69318;BME280;56457;52.190;4.440;2023-01-28T02:43:17;103119.56;;;3.92;100.00
69318;BME280;56457;52.190;4.440;2023-01-28T02:44:28;103115.19;;;3.91;100.00
69318;BME280;56457;52.190;4.440;2023-01-28T02:45:30;103122.16;;;3.92;100.00
69318;BME280;56457;52.190;4.440;2023-01-28T02:46:51;103127.09;;;3.88;100.00
69318;BME280;56457;52.190;4.440;2023-01-28T02:48:10;103118.88;;;3.80;100.00
69318;BME280;56457;52.190;4.440;2023-01-28T02:49:26;103119.84;;;3.82;100.00
69318;BME280;56457;52.190;4.440;2023-01-28T02:50:30;103112.88;;;3.81;100.00
69318;BME280;56457;52.190;4.440;2023-01-28T02:51:49;103121.63;;;3.83;100.00
69318;BME280;56457;52.190;4.440;2023-01-28T02:58:26;103130.78;;;3.76;100.00
69318;BME280;56457;52.190;4.440;2023-01-28T02:59:35;103139.66;;;3.80;100.00
69318;BME280;56457;52.190;4.440;2023-01-28T03:00:45;103132.91;;;3.84;100.00
69318;BME280;56457;52.190;4.440;2023-01-28T03:01:49;103126.28;;;3.89;100.00
69318;BME280;56457;52.190;4.440;2023-01-28T03:02:58;103128.16;;;3.91;100.00
69318;BME280;56457;52.190;4.440;2023-01-28T03:04:10;103126.47;;;3.92;100.00
69318;BME280;56457;52.190;4.440;2023-01-28T03:06:15;103121.63;;;3.98;100.00
69318;BME280;56457;52.190;4.440;2023-01-28T03:07:17;103121.63;;;3.98;100.00
69318;BME280;56457;52.190;4.440;2023-01-28T03:08:18;103121.63;;;3.98;100.00
69318;BME280;56457;52.190;4.440;2023-01-28T03:09:38;103116.56;;;4.01;100.00
69318;BME280;56457;52.190;4.440;2023-01-28T03:10:39;103118.53;;;4.05;100.00
69318;BME280;56457;52.190;4.440;2023-01-28T03:11:41;103114.06;;;4.02;100.00
69318;BME280;56457;52.190;4.440;2023-01-28T03:13:00;103123.06;;;3.93;100.00
69318;BME280;56457;52.190;4.440;2023-01-28T03:14:19;103122.53;;;3.84;100.00
69318;BME280;56457;52.190;4.440;2023-01-28T03:15:43;103127.72;;;3.84;100.00
69318;BME280;56457;52.190;4.440;2023-01-28T03:17:04;103118.75;;;3.93;100.00
69318;BME280;56457;52.190;4.440;2023-01-28T03:19:51;103124.53;;;3.73;100.00
69318;BME280;56457;52.190;4.440;2023-01-28T03:21:11;103117.88;;;3.78;100.00
69318;BME280;56457;52.190;4.440;2023-01-28T03:22:33;103117.19;;;3.81;100.00
69318;BME280;56457;52.190;4.440;2023-01-28T03:25:46;103119.47;;;3.91;100.00
69318;BME280;56457;52.190;4.440;2023-01-28T03:27:15;103112.66;;;3.93;100.00
69318;BME280;56457;52.190;4.440;2023-01-28T03:28:36;103107.69;;;3.97;100.00
69318;BME280;56457;52.190;4.440;2023-01-28T03:29:57;103106.19;;;4.01;100.00
69318;BME280;56457;52.190;4.440;2023-01-28T03:31:18;103109.13;;;4.07;100.00
69318;BME280;56457;52.190;4.440;2023-01-28T03:32:38;103117.31;;;4.15;100.00
69318;BME280;56457;52.190;4.440;2023-01-28T03:33:58;103125.13;;;4.15;100.00
69318;BME280;56457;52.190;4.440;2023-01-28T03:35:18;103124.28;;;4.16;100.00
69318;BME280;56457;52.190;4.440;2023-01-28T03:36:39;103123.41;;;4.15;100.00
69318;BME280;56457;52.190;4.440;2023-01-28T03:37:47;103124.22;;;4.14;100.00
69318;BME280;56457;52.190;4.440;2023-01-28T03:38:47;103124.06;;;4.11;100.00
69318;BME280;56457;52.190;4.440;2023-01-28T03:39:48;103120.41;;;4.08;100.00
69318;BME280;56457;52.190;4.440;2023-01-28T03:41:58;103124.06;;;4.11;100.00
69318;BME280;56457;52.190;4.440;2023-01-28T03:42:59;103130.72;;;4.06;100.00
69318;BME280;56457;52.190;4.440;2023-01-28T03:44:00;103135.91;;;4.06;100.00
69318;BME280;56457;52.190;4.440;2023-01-28T03:45:19;103129.81;;;4.05;100.00
69318;BME280;56457;52.190;4.440;2023-01-28T03:46:20;103141.81;;;4.03;100.00
69318;BME280;56457;52.190;4.440;2023-01-28T03:47:22;103140.13;;;4.04;100.00
69318;BME280;56457;52.190;4.440;2023-01-28T03:48:23;103133.47;;;4.09;100.00
69318;BME280;56457;52.190;4.440;2023-01-28T03:49:24;103135.44;;;4.13;100.00
69318;BME280;56457;52.190;4.440;2023-01-28T03:50:24;103134.63;;;4.14;100.00
69318;BME280;56457;52.190;4.440;2023-01-28T03:51:25;103131.75;;;4.10;100.00
69318;BME280;56457;52.190;4.440;2023-01-28T03:52:26;103130.78;;;4.08;100.00
69318;BME280;56457;52.190;4.440;2023-01-28T03:53:26;103132.34;;;4.04;100.00
69318;BME280;56457;52.190;4.440;2023-01-28T03:54:27;103134.28;;;4.08;100.00
69318;BME280;56457;52.190;4.440;2023-01-28T03:55:27;103125.78;;;4.11;100.00
69318;BME280;56457;52.190;4.440;2023-01-28T03:56:27;103128.72;;;4.17;100.00
69318;BME280;56457;52.190;4.440;2023-01-28T03:57:31;103133.16;;;4.19;100.00
69318;BME280;56457;52.190;4.440;2023-01-28T03:58:31;103140.16;;;4.20;100.00
69318;BME280;56457;52.190;4.440;2023-01-28T04:00:07;103136.88;;;4.08;100.00
69318;BME280;56457;52.190;4.440;2023-01-28T04:01:09;103141.03;;;4.04;100.00
69318;BME280;56457;52.190;4.440;2023-01-28T04:02:10;103149.19;;;3.96;100.00
69318;BME280;56457;52.190;4.440;2023-01-28T04:03:13;103154.63;;;4.00;100.00
69318;BME280;56457;52.190;4.440;2023-01-28T04:04:16;103153.00;;;4.02;100.00
69318;BME280;56457;52.190;4.440;2023-01-28T04:05:23;103153.13;;;4.04;100.00
69318;BME280;56457;52.190;4.440;2023-01-28T04:06:24;103150.06;;;4.11;100.00
69318;BME280;56457;52.190;4.440;2023-01-28T04:07:24;103146.72;;;4.14;100.00
69318;BME280;56457;52.190;4.440;2023-01-28T04:08:25;103142.41;;;4.14;100.00
69318;BME280;56457;52.190;4.440;2023-01-28T04:09:25;103149.66;;;4.20;100.00
69318;BME280;56457;52.190;4.440;2023-01-28T04:10:25;103137.41;;;4.17;100.00
69318;BME280;56457;52.190;4.440;2023-01-28T04:11:26;103131.94;;;4.13;100.00
69318;BME280;56457;52.190;4.440;2023-01-28T04:12:26;103132.34;;;4.04;100.00
69318;BME280;56457;52.190;4.440;2023-01-28T04:13:26;103131.53;;;4.05;100.00
69318;BME280;56457;52.190;4.440;2023-01-28T04:14:26;103127.56;;;4.12;100.00
69318;BME280;56457;52.190;4.440;2023-01-28T04:15:27;103130.88;;;4.09;100.00
69318;BME280;56457;52.190;4.440;2023-01-28T04:16:27;103132.34;;;4.04;100.00
69318;BME280;56457;52.190;4.440;2023-01-28T04:17:27;103130.72;;;4.06;100.00
69318;BME280;56457;52.190;4.440;2023-01-28T04:18:28;103128.19;;;4.08;100.00
69318;BME280;56457;52.190;4.440;2023-01-28T04:19:28;103129.91;;;4.07;100.00
69318;BME280;56457;52.190;4.440;2023-01-28T04:20:30;103130.88;;;4.09;100.00
69318;BME280;56457;52.190;4.440;2023-01-28T04:21:31;103134.81;;;4.17;100.00
69318;BME280;56457;52.190;4.440;2023-01-28T04:22:31;103131.47;;;4.20;100.00
69318;BME280;56457;52.190;4.440;2023-01-28T04:23:31;103126.81;;;4.14;100.00
69318;BME280;56457;52.190;4.440;2023-01-28T04:24:32;103134.53;;;4.13;100.00
69318;BME280;56457;52.190;4.440;2023-01-28T04:25:32;103128.28;;;4.09;100.00
69318;BME280;56457;52.190;4.440;2023-01-28T04:26:32;103136.06;;;4.09;100.00
69318;BME280;56457;52.190;4.440;2023-01-28T04:27:33;103133.56;;;4.11;100.00
69318;BME280;56457;52.190;4.440;2023-01-28T04:28:33;103132.69;;;4.10;100.00
69318;BME280;56457;52.190;4.440;2023-01-28T04:29:33;103128.53;;;4.14;100.00
69318;BME280;56457;52.190;4.440;2023-01-28T04:30:33;103123.72;;;4.05;100.00
69318;BME280;56457;52.190;4.440;2023-01-28T04:31:34;103124.63;;;4.05;100.00
69318;BME280;56457;52.190;4.440;2023-01-28T04:32:34;103114.94;;;4.03;100.00
69318;BME280;56457;52.190;4.440;2023-01-28T04:33:34;103123.06;;;4.09;100.00
69318;BME280;56457;52.190;4.440;2023-01-28T04:34:34;103123.06;;;4.09;100.00
69318;BME280;56457;52.190;4.440;2023-01-28T04:35:35;103120.41;;;4.08;100.00
69318;BME280;56457;52.190;4.440;2023-01-28T04:36:35;103124.69;;;4.07;100.00
69318;BME280;56457;52.190;4.440;2023-01-28T04:37:35;103118.06;;;4.12;100.00
69318;BME280;56457;52.190;4.440;2023-01-28T04:38:35;103111.72;;;4.07;100.00
69318;BME280;56457;52.190;4.440;2023-01-28T04:39:36;103122.38;;;4.12;100.00
69318;BME280;56457;52.190;4.440;2023-01-28T04:40:36;103120.66;;;4.12;100.00
69318;BME280;56457;52.190;4.440;2023-01-28T04:41:36;103121.22;;;4.07;100.00
69318;BME280;56457;52.190;4.440;2023-01-28T04:42:37;103114.56;;;4.12;100.00
69318;BME280;56457;52.190;4.440;2023-01-28T04:43:37;103118.13;;;4.14;100.00
69318;BME280;56457;52.190;4.440;2023-01-28T04:44:37;103122.72;;;4.03;100.00
69318;BME280;56457;52.190;4.440;2023-01-28T04:45:38;103121.69;;;3.99;100.00
69318;BME280;56457;52.190;4.440;2023-01-28T04:46:38;103125.31;;;4.03;100.00
69318;BME280;56457;52.190;4.440;2023-01-28T04:47:38;103122.72;;;4.03;100.00
69318;BME280;56457;52.190;4.440;2023-01-28T04:48:38;103121.28;;;4.08;100.00
69318;BME280;56457;52.190;4.440;2023-01-28T04:49:39;103122.72;;;4.03;100.00
69318;BME280;56457;52.190;4.440;2023-01-28T04:50:40;103126.16;;;4.02;100.00
69318;BME280;56457;52.190;4.440;2023-01-28T04:51:40;103132.97;;;4.00;100.00
69318;BME280;56457;52.190;4.440;2023-01-28T04:52:41;103139.88;;;3.99;100.00
69318;BME280;56457;52.190;4.440;2023-01-28T04:53:41;103139.41;;;4.07;100.00
69318;BME280;56457;52.190;4.440;2023-01-28T04:54:42;103137.13;;;4.13;100.00
69318;BME280;56457;52.190;4.440;2023-01-28T04:55:43;103136.59;;;4.18;100.00
69318;BME280;56457;52.190;4.440;2023-01-28T04:56:44;103132.34;;;4.20;100.00
69318;BME280;56457;52.190;4.440;2023-01-28T04:57:45;103138.91;;;4.14;100.00
69318;BME280;56457;52.190;4.440;2023-01-28T04:58:45;103140.63;;;4.13;100.00
69318;BME280;56457;52.190;4.440;2023-01-28T04:59:45;103139.00;;;4.15;100.00
69318;BME280;56457;52.190;4.440;2023-01-28T05:00:46;103136.94;;;4.10;100.00
69318;BME280;56457;52.190;4.440;2023-01-28T05:01:46;103142.88;;;4.07;100.00
69318;BME280;56457;52.190;4.440;2023-01-28T05:02:46;103139.47;;;4.08;100.00
69318;BME280;56457;52.190;4.440;2023-01-28T05:03:47;103145.47;;;4.07;100.00
69318;BME280;56457;52.190;4.440;2023-01-28T05:04:47;103144.50;;;4.05;100.00
69318;BME280;56457;52.190;4.440;2023-01-28T05:05:47;103154.44;;;4.12;100.00
69318;BME280;56457;52.190;4.440;2023-01-28T05:06:47;103151.56;;;4.08;100.00
69318;BME280;56457;52.190;4.440;2023-01-28T05:07:51;103147.00;;;4.03;100.00
69318;BME280;56457;52.190;4.440;2023-01-28T05:08:52;103144.50;;;4.05;100.00
69318;BME280;56457;52.190;4.440;2023-01-28T05:09:52;103137.63;;;4.05;100.00
69318;BME280;56457;52.190;4.440;2023-01-28T05:10:52;103136.31;;;4.14;100.00
69318;BME280;56457;52.190;4.440;2023-01-28T05:11:52;103135.16;;;4.09;100.00
69318;BME280;56457;52.190;4.440;2023-01-28T05:12:53;103136.81;;;4.07;100.00
69318;BME280;56457;52.190;4.440;2023-01-28T05:13:53;103134.47;;;4.11;100.00
69318;BME280;56457;52.190;4.440;2023-01-28T05:14:54;103138.09;;;4.15;100.00
69318;BME280;56457;52.190;4.440;2023-01-28T05:15:54;103132.91;;;4.15;100.00
69318;BME280;56457;52.190;4.440;2023-01-28T05:16:54;103144.03;;;4.12;100.00
69318;BME280;56457;52.190;4.440;2023-01-28T05:17:55;103133.66;;;4.12;100.00
69318;BME280;56457;52.190;4.440;2023-01-28T05:18:56;103124.22;;;4.14;100.00
69318;BME280;56457;52.190;4.440;2023-01-28T05:19:56;103121.63;;;4.14;100.00
69318;BME280;56457;52.190;4.440;2023-01-28T05:20:56;103124.56;;;4.20;100.00
69318;BME280;56457;52.190;4.440;2023-01-28T05:21:57;103136.72;;;4.21;100.00
69318;BME280;56457;52.190;4.440;2023-01-28T05:22:57;103129.59;;;4.17;100.00
69318;BME280;56457;52.190;4.440;2023-01-28T05:23:57;103133.03;;;4.16;100.00
69318;BME280;56457;52.190;4.440;2023-01-28T05:24:58;103119.44;;;4.05;100.00
69318;BME280;56457;52.190;4.440;2023-01-28T05:25:58;103122.91;;;4.06;100.00
69318;BME280;56457;52.190;4.440;2023-01-28T05:26:58;103130.88;;;4.09;100.00
69318;BME280;56457;52.190;4.440;2023-01-28T05:27:59;103125.53;;;4.06;100.00
69318;BME280;56457;52.190;4.440;2023-01-28T05:28:59;103128.03;;;4.04;100.00
69318;BME280;56457;52.190;4.440;2023-01-28T05:29:59;103137.91;;;3.95;100.00
69318;BME280;56457;52.190;4.440;2023-01-28T05:31:05;103127.69;;;3.98;100.00
69318;BME280;56457;52.190;4.440;2023-01-28T05:32:06;103126.97;;;4.01;100.00
69318;BME280;56457;52.190;4.440;2023-01-28T05:33:06;103127.94;;;4.03;100.00
69318;BME280;56457;52.190;4.440;2023-01-28T05:34:07;103126.16;;;4.02;100.00
69318;BME280;56457;52.190;4.440;2023-01-28T05:35:07;103122.72;;;4.03;100.00
69318;BME280;56457;52.190;4.440;2023-01-28T05:36:08;103124.22;;;3.98;100.00
69318;BME280;56457;52.190;4.440;2023-01-28T05:37:08;103113.97;;;4.01;100.00
69318;BME280;56457;52.190;4.440;2023-01-28T05:38:08;103116.41;;;3.98;100.00
69318;BME280;56457;52.190;4.440;2023-01-28T05:39:09;103117.47;;;4.01;100.00
69318;BME280;56457;52.190;4.440;2023-01-28T05:40:09;103129.81;;;4.05;100.00
69318;BME280;56457;52.190;4.440;2023-01-28T05:41:09;103124.88;;;4.10;100.00
69318;BME280;56457;52.190;4.440;2023-01-28T05:42:10;103117.97;;;4.11;100.00
69318;BME280;56457;52.190;4.440;2023-01-28T05:43:10;103132.75;;;4.12;100.00
69318;BME280;56457;52.190;4.440;2023-01-28T05:44:10;103128.28;;;4.09;100.00
69318;BME280;56457;52.190;4.440;2023-01-28T05:45:11;103132.69;;;4.10;100.00
69318;BME280;56457;52.190;4.440;2023-01-28T05:46:11;103133.22;;;4.04;100.00
69318;BME280;56457;52.190;4.440;2023-01-28T05:47:11;103130.63;;;4.04;100.00
69318;BME280;56457;52.190;4.440;2023-01-28T05:48:12;103127.50;;;3.95;100.00
69318;BME280;56457;52.190;4.440;2023-01-28T05:49:12;103126.81;;;3.98;100.00
69318;BME280;56457;52.190;4.440;2023-01-28T05:50:13;103136.28;;;3.97;100.00
69318;BME280;56457;52.190;4.440;2023-01-28T05:51:13;103134.69;;;3.99;100.00
69318;BME280;56457;52.190;4.440;2023-01-28T05:52:13;103132.34;;;4.04;100.00
69318;BME280;56457;52.190;4.440;2023-01-28T05:53:14;103133.31;;;4.06;100.00
69318;BME280;56457;52.190;4.440;2023-01-28T05:54:14;103128.13;;;4.06;100.00
69318;BME280;56457;52.190;4.440;2023-01-28T05:55:14;103123.63;;;4.03;100.00
69318;BME280;56457;52.190;4.440;2023-01-28T05:56:15;103125.31;;;4.03;100.00
69318;BME280;56457;52.190;4.440;2023-01-28T05:57:15;103129.47;;;3.99;100.00